Time;durP1;ratioP1;P1;durP2;ratioP2;P2;SDS_P1;SDS_P2;PMS_P1;PMS_P2;Temp;Humidity;BMP_temperature;BMP_pressure;BME280_temperature;BME280_humidity;BME280_pressure;Samples;Min_cycle;Max_cycle;Signal;HPM_P1;HPM_P2
2021/12/20 00:00:46;;;;;;;3.45;2.08;;;18.20;67.10;;;;;;5040193;28;20029;-78
2021/12/20 00:03:11;;;;;;;3.25;1.95;;;18.20;67.10;;;;;;5039849;28;20037;-77
2021/12/20 00:05:37;;;;;;;3.17;1.98;;;18.10;67.00;;;;;;5039475;28;20033;-77
2021/12/20 00:08:03;;;;;;;2.67;1.67;;;18.10;67.00;;;;;;5040923;28;20108;-78
2021/12/20 00:10:29;;;;;;;3.53;1.80;;;18.10;67.10;;;;;;5021763;28;20542;-78
2021/12/20 00:12:54;;;;;;;4.60;2.45;;;18.10;67.00;;;;;;5039937;28;20071;-77
2021/12/20 00:15:20;;;;;;;2.85;2.10;;;18.00;67.00;;;;;;5022960;28;20404;-77
2021/12/20 00:17:46;;;;;;;4.70;1.90;;;18.10;67.10;;;;;;5039110;28;20017;-77
2021/12/20 00:20:12;;;;;;;2.88;2.00;;;18.00;67.20;;;;;;5021227;28;20025;-78
2021/12/20 00:22:37;;;;;;;2.90;2.05;;;18.00;67.10;;;;;;5039874;28;20021;-77
2021/12/20 00:25:04;;;;;;;3.88;2.17;;;18.00;67.20;;;;;;5038645;28;20037;-78
2021/12/20 00:27:30;;;;;;;2.38;1.73;;;18.00;67.20;;;;;;5038360;28;20075;-77
2021/12/20 00:29:56;;;;;;;3.83;2.13;;;18.00;67.20;;;;;;5039163;28;20021;-77
2021/12/20 00:32:21;;;;;;;3.45;2.05;;;18.00;67.20;;;;;;5038547;28;20049;-77
2021/12/20 00:34:47;;;;;;;3.88;2.05;;;18.00;67.20;;;;;;5039414;28;20108;-78
2021/12/20 00:42:43;;;;;;;3.83;2.08;;;17.90;67.30;;;;;;5040544;28;20500;-78
2021/12/20 00:45:10;;;;;;;4.45;2.50;;;17.90;67.30;;;;;;5038282;28;20057;-78
2021/12/20 00:47:35;;;;;;;3.28;1.73;;;17.90;67.30;;;;;;5038484;28;20462;-78
2021/12/20 00:50:02;;;;;;;3.47;2.10;;;17.90;67.30;;;;;;5038121;28;20074;-79
2021/12/20 00:52:27;;;;;;;3.80;2.17;;;17.90;67.40;;;;;;5039064;28;20029;-79
2021/12/20 00:54:53;;;;;;;4.03;2.00;;;17.90;67.30;;;;;;5038523;28;20115;-78
2021/12/20 00:57:18;;;;;;;4.00;2.03;;;17.90;67.30;;;;;;5039182;28;20022;-78
2021/12/20 00:59:44;;;;;;;4.40;2.30;;;17.80;67.20;;;;;;5027060;28;20451;-79
2021/12/20 01:02:10;;;;;;;3.92;2.40;;;17.90;67.30;;;;;;5034666;28;20382;-78
2021/12/20 01:04:35;;;;;;;3.75;2.72;;;17.80;67.20;;;;;;5036520;28;20112;-78
2021/12/20 01:07:01;;;;;;;2.83;1.90;;;17.80;67.20;;;;;;5037749;28;20079;-78
2021/12/20 01:09:26;;;;;;;2.70;1.90;;;17.80;67.30;;;;;;5038112;28;20029;-77
2021/12/20 01:11:54;;;;;;;4.68;2.72;;;17.80;67.30;;;;;;5040413;28;20040;-78
2021/12/20 01:14:25;;;;;;;3.22;2.17;;;17.80;67.30;;;;;;5039668;28;20717;-78
2021/12/20 01:16:51;;;;;;;5.35;2.20;;;17.80;67.20;;;;;;5037670;28;20386;-78
2021/12/20 01:19:17;;;;;;;4.10;2.63;;;17.80;67.20;;;;;;5038415;28;20085;-78
2021/12/20 01:21:43;;;;;;;3.22;1.83;;;17.80;67.30;;;;;;5019914;28;20120;-78
2021/12/20 01:24:09;;;;;;;3.35;2.25;;;17.80;67.20;;;;;;5039475;28;20033;-78
2021/12/20 01:26:35;;;;;;;3.22;1.95;;;17.80;67.20;;;;;;5037149;28;20104;-78
2021/12/20 01:29:01;;;;;;;4.97;2.10;;;17.80;67.20;;;;;;5037963;28;20040;-78
2021/12/20 01:31:26;;;;;;;3.22;2.10;;;17.80;67.20;;;;;;5038257;28;20021;-77
2021/12/20 01:33:52;;;;;;;3.90;2.40;;;17.80;67.20;;;;;;5037401;28;20032;-77
2021/12/20 01:36:18;;;;;;;3.60;2.25;;;17.80;67.30;;;;;;5037855;28;20302;-78
2021/12/20 01:38:44;;;;;;;3.85;2.40;;;17.70;67.20;;;;;;5036616;28;20025;-78
2021/12/20 01:41:10;;;;;;;3.35;1.92;;;17.70;67.20;;;;;;5038417;28;20536;-77
2021/12/20 01:43:37;;;;;;;2.78;1.73;;;17.70;67.20;;;;;;5037496;28;20048;-77
2021/12/20 01:46:04;;;;;;;5.25;2.28;;;17.70;67.10;;;;;;5038049;28;20030;-77
2021/12/20 01:48:31;;;;;;;3.03;1.88;;;17.70;67.20;;;;;;5037777;28;20026;-77
2021/12/20 01:53:33;;;;;;;3.33;1.80;;;17.70;67.20;;;;;;5037220;28;20030;-78
2021/12/20 01:56:00;;;;;;;3.80;1.98;;;17.70;67.10;;;;;;5037208;28;20045;-78
2021/12/20 01:58:27;;;;;;;2.95;2.00;;;17.70;67.10;;;;;;5037682;28;20495;-77
2021/12/20 02:03:39;;;;;;;4.60;2.40;;;17.70;67.10;;;;;;5039542;28;20447;-77
2021/12/20 02:06:10;;;;;;;3.20;1.85;;;17.70;67.20;;;;;;5037113;28;20374;-78
2021/12/20 02:08:37;;;;;;;4.15;2.03;;;17.70;67.10;;;;;;5037767;28;20025;-77
2021/12/20 02:11:09;;;;;;;2.95;1.73;;;17.70;67.10;;;;;;5036964;28;20040;-78
2021/12/20 02:13:37;;;;;;;3.33;1.90;;;17.70;67.10;;;;;;5037959;28;20029;-77
2021/12/20 02:16:03;;;;;;;3.83;1.85;;;17.60;67.10;;;;;;5039651;28;20038;-78
2021/12/20 02:18:30;;;;;;;2.63;1.73;;;17.70;67.00;;;;;;5038370;28;20492;-78
2021/12/20 02:20:57;;;;;;;2.25;1.70;;;17.60;67.00;;;;;;5037112;28;20034;-78
2021/12/20 02:23:23;;;;;;;4.35;2.13;;;17.60;67.00;;;;;;5036203;28;20025;-77
2021/12/20 02:25:48;;;;;;;3.50;2.00;;;17.70;67.00;;;;;;5036756;28;20021;-78
2021/12/20 02:28:16;;;;;;;3.08;2.08;;;17.60;67.00;;;;;;5037455;28;20457;-78
2021/12/20 02:38:47;;;;;;;3.25;2.25;;;17.60;66.90;;;;;;5036407;28;20061;-78
2021/12/20 02:41:15;;;;;;;2.95;1.77;;;17.60;66.90;;;;;;5035921;28;20037;-78
2021/12/20 02:43:55;;;;;;;4.22;1.90;;;17.60;66.90;;;;;;5036010;28;20061;-79
2021/12/20 02:49:03;;;;;;;3.80;2.00;;;17.70;67.00;;;;;;5036270;28;20506;-78
2021/12/20 02:51:29;;;;;;;3.17;1.90;;;17.60;66.90;;;;;;5037076;28;20037;-77
2021/12/20 02:53:58;;;;;;;4.75;1.95;;;17.60;66.90;;;;;;5036108;28;20151;-77
2021/12/20 02:56:24;;;;;;;4.00;1.60;;;17.60;66.90;;;;;;5036343;28;20516;-79
2021/12/20 02:58:50;;;;;;;3.70;1.77;;;17.60;66.90;;;;;;5035717;28;20421;-77
2021/12/20 03:01:17;;;;;;;4.60;2.20;;;17.60;66.90;;;;;;5035775;28;20076;-77
2021/12/20 03:03:43;;;;;;;2.53;1.58;;;17.60;66.90;;;;;;5035820;28;20013;-78
2021/12/20 03:06:18;;;;;;;4.13;2.28;;;17.60;66.90;;;;;;5017779;28;20021;-78
2021/12/20 03:08:46;;;;;;;3.15;1.60;;;17.60;66.90;;;;;;5036299;28;20036;-78
2021/12/20 03:11:12;;;;;;;2.75;1.30;;;17.60;66.90;;;;;;5036671;28;20112;-78
2021/12/20 03:13:38;;;;;;;3.10;1.75;;;17.60;66.90;;;;;;5035755;28;20508;-79
2021/12/20 03:16:04;;;;;;;3.00;1.70;;;17.60;66.90;;;;;;5035587;28;20040;-78
2021/12/20 03:18:30;;;;;;;3.13;1.95;;;17.60;66.90;;;;;;5037572;28;20026;-78
2021/12/20 03:20:56;;;;;;;3.70;2.10;;;17.60;66.80;;;;;;5039864;28;20029;-78
2021/12/20 03:23:22;;;;;;;2.70;1.40;;;17.60;66.80;;;;;;5040105;28;20481;-77
2021/12/20 03:25:47;;;;;;;5.32;2.10;;;17.60;66.80;;;;;;5039825;28;20025;-78
2021/12/20 03:28:13;;;;;;;4.13;2.17;;;17.60;66.80;;;;;;5039390;28;20037;-78
2021/12/20 03:30:39;;;;;;;3.40;1.48;;;17.60;66.80;;;;;;5040287;28;20029;-77
2021/12/20 03:33:04;;;;;;;2.63;1.63;;;17.60;66.80;;;;;;5039646;28;20044;-78
2021/12/20 03:35:30;;;;;;;3.42;1.70;;;17.60;66.80;;;;;;5040004;28;20116;-78
2021/12/20 03:37:56;;;;;;;2.45;1.60;;;17.60;66.80;;;;;;5040466;28;20032;-77
2021/12/20 03:40:22;;;;;;;3.38;1.58;;;17.60;66.80;;;;;;5041378;28;20025;-77
2021/12/20 03:42:48;;;;;;;3.60;1.95;;;17.60;66.80;;;;;;5040323;28;20550;-77
2021/12/20 03:45:15;;;;;;;2.75;1.92;;;17.60;66.80;;;;;;5038941;28;20031;-78
2021/12/20 03:47:43;;;;;;;4.40;1.67;;;17.60;66.80;;;;;;5040328;28;20019;-78
2021/12/20 03:50:10;;;;;;;4.25;1.95;;;17.60;66.80;;;;;;5039443;28;20105;-77
2021/12/20 03:52:38;;;;;;;2.15;1.38;;;17.60;66.70;;;;;;5039719;28;20095;-77
2021/12/20 03:55:09;;;;;;;3.40;1.88;;;17.60;67.50;;;;;;5038811;28;20033;-77
2021/12/20 03:57:34;;;;;;;4.03;1.92;;;17.60;66.80;;;;;;5039347;28;20400;-78
2021/12/20 04:00:03;;;;;;;2.33;1.60;;;17.60;66.70;;;;;;5040475;28;20040;-78
2021/12/20 04:02:36;;;;;;;3.72;1.75;;;17.60;66.80;;;;;;5039575;28;20037;-78
2021/12/20 04:05:02;;;;;;;3.78;1.98;;;17.60;66.70;;;;;;5021178;28;20033;-78
2021/12/20 04:07:28;;;;;;;2.72;1.33;;;17.60;66.70;;;;;;5039706;28;20025;-77
2021/12/20 04:09:53;;;;;;;2.83;1.60;;;17.60;66.70;;;;;;5039908;28;20029;-78
2021/12/20 04:12:19;;;;;;;2.22;1.50;;;17.60;66.70;;;;;;5038678;28;20029;-77
2021/12/20 04:14:44;;;;;;;2.33;1.38;;;17.60;66.70;;;;;;5038692;28;20056;-78
2021/12/20 04:17:10;;;;;;;2.80;1.67;;;17.60;66.70;;;;;;5041323;28;20413;-76
2021/12/20 04:19:36;;;;;;;3.25;1.63;;;17.60;66.70;;;;;;5038854;28;20079;-77
2021/12/20 04:22:02;;;;;;;3.13;1.60;;;17.60;66.70;;;;;;5039491;28;20109;-78
2021/12/20 04:24:27;;;;;;;3.15;1.52;;;17.60;66.70;;;;;;5038937;28;20131;-78
2021/12/20 04:26:53;;;;;;;3.60;1.60;;;17.60;66.70;;;;;;5038788;28;20104;-77
2021/12/20 04:29:19;;;;;;;2.97;1.42;;;17.60;66.60;;;;;;5038162;28;20032;-77
2021/12/20 04:31:46;;;;;;;3.15;1.50;;;17.60;66.60;;;;;;5039152;28;20033;-77
2021/12/20 04:34:11;;;;;;;3.22;1.75;;;17.60;66.70;;;;;;5020550;28;20033;-77
2021/12/20 04:36:37;;;;;;;3.13;1.60;;;17.60;66.60;;;;;;5020732;28;20024;-77
2021/12/20 04:39:06;;;;;;;3.50;1.85;;;17.60;66.60;;;;;;5041183;28;20032;-77
2021/12/20 04:41:32;;;;;;;3.25;1.50;;;17.60;66.60;;;;;;5039209;28;20025;-78
2021/12/20 04:43:58;;;;;;;2.70;1.40;;;17.60;66.60;;;;;;5038271;28;20041;-77
2021/12/20 04:46:23;;;;;;;4.85;1.70;;;17.60;66.50;;;;;;5038294;28;20078;-77
2021/12/20 04:48:49;;;;;;;2.60;1.40;;;17.60;66.50;;;;;;5039558;28;20104;-78
2021/12/20 04:51:14;;;;;;;3.80;1.58;;;17.60;66.60;;;;;;5022597;28;20120;-77
2021/12/20 04:53:40;;;;;;;3.15;1.55;;;17.60;66.50;;;;;;5039146;28;20038;-77
2021/12/20 04:56:06;;;;;;;3.53;1.90;;;17.60;66.50;;;;;;5038513;28;20051;-78
2021/12/20 04:58:31;;;;;;;2.55;1.80;;;17.60;66.50;;;;;;5038603;28;20017;-78
2021/12/20 05:00:57;;;;;;;3.63;1.77;;;17.60;66.50;;;;;;5037990;28;20486;-78
2021/12/20 05:03:23;;;;;;;2.88;1.73;;;17.60;66.50;;;;;;5038322;28;20096;-78
2021/12/20 05:05:48;;;;;;;3.42;1.58;;;17.60;66.50;;;;;;5038084;28;20033;-78
2021/12/20 05:08:15;;;;;;;2.65;1.80;;;17.60;66.50;;;;;;5039027;28;20108;-78
2021/12/20 05:10:42;;;;;;;3.35;1.70;;;17.60;66.50;;;;;;5038434;28;20100;-77
2021/12/20 05:13:10;;;;;;;2.55;1.40;;;17.60;66.50;;;;;;5038459;28;20110;-78
2021/12/20 05:15:38;;;;;;;3.17;1.40;;;17.60;66.50;;;;;;5019701;28;20041;-79
2021/12/20 05:18:05;;;;;;;3.70;1.63;;;17.60;66.50;;;;;;5039077;28;20108;-78
2021/12/20 05:20:31;;;;;;;2.55;1.30;;;17.60;66.50;;;;;;5037904;28;20037;-79
2021/12/20 05:22:57;;;;;;;3.17;1.75;;;17.60;66.50;;;;;;5039003;28;20052;-79
2021/12/20 05:25:24;;;;;;;4.28;1.88;;;17.60;66.50;;;;;;5039860;28;20106;-78
2021/12/20 05:27:50;;;;;;;1.95;1.20;;;17.60;66.40;;;;;;5037214;28;20040;-78
2021/12/20 05:30:17;;;;;;;2.70;1.42;;;17.60;66.50;;;;;;5020614;28;20025;-78
2021/12/20 05:32:43;;;;;;;3.30;1.20;;;17.60;66.40;;;;;;5038032;28;20033;-79
2021/12/20 05:35:10;;;;;;;2.72;1.38;;;17.60;66.50;;;;;;5037425;28;20801;-78
2021/12/20 05:37:36;;;;;;;2.38;1.52;;;17.60;66.50;;;;;;5038610;28;20033;-78
2021/12/20 05:40:04;;;;;;;2.00;1.17;;;17.60;66.40;;;;;;5041053;28;20488;-79
2021/12/20 05:42:30;;;;;;;3.65;1.20;;;17.60;66.40;;;;;;5051908;28;20032;-78
2021/12/20 05:44:56;;;;;;;3.03;1.33;;;17.60;66.50;;;;;;5038718;28;20120;-78
2021/12/20 05:47:22;;;;;;;3.08;1.42;;;17.60;66.50;;;;;;5019582;28;20075;-78
2021/12/20 05:49:52;;;;;;;3.75;1.90;;;17.60;66.50;;;;;;5037331;28;20033;-78
2021/12/20 05:52:18;;;;;;;2.75;1.20;;;17.60;66.50;;;;;;5038228;28;20029;-78
2021/12/20 05:54:44;;;;;;;2.63;1.38;;;17.60;66.50;;;;;;5036940;28;20839;-79
2021/12/20 05:57:11;;;;;;;3.53;1.50;;;17.60;66.50;;;;;;5018964;28;20057;-78
2021/12/20 05:59:37;;;;;;;2.50;1.45;;;17.60;66.50;;;;;;5019434;28;20405;-78
2021/12/20 06:02:03;;;;;;;2.78;1.35;;;17.60;66.50;;;;;;5035566;28;20063;-78
2021/12/20 06:04:29;;;;;;;3.53;1.50;;;17.60;66.50;;;;;;5038011;28;20052;-78
2021/12/20 06:06:55;;;;;;;3.20;1.20;;;17.60;66.50;;;;;;5036250;28;20468;-78
2021/12/20 06:09:20;;;;;;;2.85;1.30;;;17.70;66.60;;;;;;5040388;28;20516;-78
2021/12/20 06:11:46;;;;;;;2.67;1.35;;;17.60;66.50;;;;;;5036394;28;20026;-78
2021/12/20 06:14:11;;;;;;;2.45;0.90;;;17.70;66.60;;;;;;5038761;28;20026;-78
2021/12/20 06:16:37;;;;;;;2.35;1.25;;;17.70;66.70;;;;;;5037216;28;20059;-77
2021/12/20 06:19:04;;;;;;;3.03;1.50;;;17.60;66.50;;;;;;5036601;28;20123;-78
2021/12/20 06:21:29;;;;;;;2.72;1.02;;;17.70;66.60;;;;;;5038540;28;20080;-78
2021/12/20 06:23:55;;;;;;;2.45;1.15;;;17.70;66.70;;;;;;5040293;28;20018;-78
2021/12/20 06:26:23;;;;;;;4.20;1.08;;;17.70;66.70;;;;;;5031833;28;20109;-79
2021/12/20 06:28:52;;;;;;;2.08;1.20;;;17.70;66.70;;;;;;5050122;28;20032;-79
2021/12/20 06:31:18;;;;;;;2.63;0.93;;;17.70;66.70;;;;;;5051523;28;20021;-79
2021/12/20 06:33:45;;;;;;;3.20;1.30;;;17.70;66.70;;;;;;5051748;28;20369;-79
2021/12/20 06:36:11;;;;;;;2.90;1.27;;;17.70;66.60;;;;;;5033982;28;20043;-79
2021/12/20 06:38:43;;;;;;;1.83;1.13;;;17.80;66.70;;;;;;5051598;28;20048;-79
2021/12/20 06:41:10;;;;;;;2.50;1.25;;;17.80;66.70;;;;;;5026056;28;20500;-79
2021/12/20 06:43:35;;;;;;;3.38;1.13;;;17.80;66.70;;;;;;5031901;28;20080;-79
2021/12/20 06:46:01;;;;;;;2.33;0.90;;;17.80;66.70;;;;;;5037795;28;20028;-79
2021/12/20 06:48:27;;;;;;;2.58;1.10;;;17.80;66.70;;;;;;5051599;28;20484;-79
2021/12/20 06:50:52;;;;;;;2.83;1.00;;;17.80;66.70;;;;;;5051522;28;20025;-79
2021/12/20 06:53:18;;;;;;;3.75;1.40;;;17.80;66.70;;;;;;5051393;28;20085;-80
2021/12/20 06:55:44;;;;;;;3.00;1.00;;;17.80;66.60;;;;;;5051529;28;20036;-80
2021/12/20 06:58:09;;;;;;;1.85;1.05;;;17.80;66.60;;;;;;5051824;28;20036;-80
2021/12/20 07:00:36;;;;;;;3.47;1.05;;;17.90;66.60;;;;;;5051157;28;20420;-80
2021/12/20 07:03:01;;;;;;;1.75;0.98;;;17.90;66.60;;;;;;5051522;28;20059;-80
2021/12/20 07:05:27;;;;;;;3.00;1.13;;;17.90;66.60;;;;;;5051404;28;20060;-79
2021/12/20 07:07:53;;;;;;;1.83;0.80;;;17.90;66.60;;;;;;5051248;28;20032;-81
2021/12/20 07:10:18;;;;;;;2.33;1.00;;;17.90;66.60;;;;;;5051480;28;20031;-79
2021/12/20 07:12:44;;;;;;;3.33;1.42;;;17.90;66.60;;;;;;5051416;28;20032;-79
2021/12/20 07:15:14;;;;;;;1.80;0.90;;;17.90;66.60;;;;;;5051532;28;20104;-80
2021/12/20 07:17:41;;;;;;;2.55;1.05;;;17.90;66.60;;;;;;5031729;28;20022;-80
2021/12/20 07:20:07;;;;;;;3.42;1.08;;;17.90;66.60;;;;;;5031371;28;20029;-79
2021/12/20 07:22:33;;;;;;;3.67;1.30;;;17.90;66.60;;;;;;5031438;28;20021;-79
2021/12/20 07:25:00;;;;;;;2.38;0.85;;;17.90;66.50;;;;;;5031142;28;20082;-80
2021/12/20 07:27:26;;;;;;;1.80;0.90;;;17.90;66.50;;;;;;5033914;28;20056;-79
2021/12/20 07:29:52;;;;;;;1.70;1.00;;;17.90;66.50;;;;;;5035880;28;20025;-79
2021/12/20 07:32:17;;;;;;;2.60;1.08;;;17.90;66.50;;;;;;5036854;28;20023;-79
2021/12/20 07:34:43;;;;;;;1.95;1.02;;;17.90;66.40;;;;;;5036738;28;20037;-79
2021/12/20 07:37:08;;;;;;;1.35;0.63;;;17.90;66.40;;;;;;5036099;28;20025;-79
2021/12/20 07:39:35;;;;;;;1.17;0.90;;;17.90;66.30;;;;;;5042094;28;20070;-79
2021/12/20 07:42:01;;;;;;;3.17;1.08;;;17.90;66.40;;;;;;5036930;28;20091;-80
2021/12/20 07:44:26;;;;;;;1.85;1.10;;;17.90;66.30;;;;;;5020552;28;20025;-78
2021/12/20 07:46:53;;;;;;;2.92;0.90;;;17.90;66.30;;;;;;5036757;28;20028;-77
2021/12/20 07:49:18;;;;;;;1.50;0.85;;;17.90;66.30;;;;;;5038522;28;20560;-78
2021/12/20 07:51:44;;;;;;;3.03;1.35;;;17.90;66.20;;;;;;5039308;28;20177;-78
2021/12/20 07:54:10;;;;;;;3.63;1.65;;;17.90;66.20;;;;;;5033074;28;20108;-77
2021/12/20 07:56:36;;;;;;;2.40;0.93;;;17.90;66.20;;;;;;5050649;28;20480;-78
2021/12/20 07:59:02;;;;;;;1.80;0.85;;;17.90;66.10;;;;;;5044226;28;20120;-77
2021/12/20 08:01:28;;;;;;;2.13;0.90;;;17.90;66.10;;;;;;5016052;28;20025;-79
2021/12/20 08:03:53;;;;;;;1.75;0.85;;;17.80;66.00;;;;;;5031057;28;20029;-78
2021/12/20 08:06:20;;;;;;;2.17;1.00;;;17.90;66.00;;;;;;5035025;28;20096;-78
2021/12/20 08:08:45;;;;;;;2.20;0.90;;;17.90;66.10;;;;;;5034739;28;20539;-78
2021/12/20 08:11:11;;;;;;;1.50;0.80;;;17.90;66.00;;;;;;5034456;28;20100;-78
2021/12/20 08:13:44;;;;;;;2.72;1.00;;;17.90;66.10;;;;;;5034373;28;20037;-78
2021/12/20 08:16:14;;;;;;;3.80;1.20;;;17.90;66.20;;;;;;5034238;28;20037;-79
2021/12/20 08:18:44;;;;;;;3.20;1.42;;;17.90;66.20;;;;;;5034488;28;20025;-78
2021/12/20 08:21:10;;;;;;;2.33;1.48;;;17.90;66.10;;;;;;5034288;28;20513;-77
2021/12/20 08:23:37;;;;;;;3.72;1.50;;;17.90;66.60;;;;;;5034572;28;20385;-78
2021/12/20 08:26:03;;;;;;;2.92;1.30;;;17.80;66.50;;;;;;5038818;28;20027;-78
2021/12/20 08:28:30;;;;;;;3.70;1.38;;;17.90;66.50;;;;;;5042069;28;20025;-77
2021/12/20 08:30:56;;;;;;;4.18;1.60;;;17.90;66.60;;;;;;5037412;28;20018;-77
2021/12/20 08:33:21;;;;;;;6.78;1.40;;;17.90;66.50;;;;;;5047964;28;20029;-78
2021/12/20 08:35:49;;;;;;;3.95;1.75;;;17.90;66.60;;;;;;5043952;28;20409;-80
2021/12/20 08:38:16;;;;;;;4.35;1.40;;;17.90;66.70;;;;;;5038311;28;20014;-78
2021/12/20 08:40:43;;;;;;;3.53;1.33;;;17.90;66.70;;;;;;5022259;28;20037;-78
2021/12/20 08:43:08;;;;;;;5.70;1.77;;;17.90;66.80;;;;;;5041124;28;20056;-78
2021/12/20 08:45:34;;;;;;;6.03;1.50;;;17.80;66.80;;;;;;5053248;28;20101;-78
2021/12/20 08:48:00;;;;;;;6.82;1.98;;;17.80;66.80;;;;;;5053603;28;20049;-78
2021/12/20 08:50:25;;;;;;;4.43;1.42;;;17.80;66.80;;;;;;5053574;28;20518;-78
2021/12/20 08:52:52;;;;;;;7.13;1.10;;;17.80;66.90;;;;;;5053631;28;20124;-78
2021/12/20 08:55:18;;;;;;;3.97;1.20;;;17.80;66.90;;;;;;5026090;28;20089;-77
2021/12/20 08:57:44;;;;;;;3.30;1.23;;;17.80;67.00;;;;;;5053687;28;20488;-77
2021/12/20 09:00:14;;;;;;;3.22;1.02;;;17.80;67.00;;;;;;5051522;28;20077;-77
2021/12/20 09:02:40;;;;;;;3.30;1.10;;;17.80;67.00;;;;;;5053530;28;20021;-77
2021/12/20 09:05:06;;;;;;;3.25;1.83;;;17.80;67.00;;;;;;5053380;28;20039;-77
2021/12/20 09:07:33;;;;;;;4.93;1.20;;;17.80;67.00;;;;;;5053317;28;20017;-77
2021/12/20 09:09:59;;;;;;;3.13;1.35;;;17.80;67.00;;;;;;5053196;28;20057;-76
2021/12/20 09:12:24;;;;;;;4.28;1.15;;;17.80;67.00;;;;;;5035281;28;20071;-77
2021/12/20 09:14:50;;;;;;;3.05;1.60;;;17.80;67.10;;;;;;5052733;28;20124;-76
2021/12/20 09:17:16;;;;;;;2.53;1.13;;;17.70;67.10;;;;;;5050950;28;20388;-75
2021/12/20 09:19:42;;;;;;;3.45;1.45;;;17.80;67.30;;;;;;5033306;28;20088;-77
2021/12/20 09:22:11;;;;;;;3.17;1.17;;;17.80;67.40;;;;;;5033072;28;20053;-77
2021/12/20 09:24:38;;;;;;;5.63;1.38;;;17.80;67.40;;;;;;5032976;28;20098;-78
2021/12/20 09:27:05;;;;;;;1.98;1.08;;;17.70;67.30;;;;;;5032970;28;20067;-78
2021/12/20 09:29:31;;;;;;;6.60;1.73;;;17.70;67.30;;;;;;5037587;28;20025;-80
2021/12/20 09:31:57;;;;;;;3.65;1.02;;;17.70;67.30;;;;;;5033053;28;20504;-78
2021/12/20 09:34:23;;;;;;;4.60;1.50;;;17.70;67.20;;;;;;5052777;28;20032;-79
2021/12/20 09:36:50;;;;;;;4.90;1.27;;;17.70;67.30;;;;;;5049386;28;20066;-78
2021/12/20 09:39:17;;;;;;;5.38;1.52;;;17.70;67.20;;;;;;5050845;28;20499;-79
2021/12/20 09:44:10;;;;;;;6.25;1.30;;;17.70;67.30;;;;;;5046158;28;20025;-77
2021/12/20 09:46:37;;;;;;;6.10;1.13;;;17.70;67.30;;;;;;5052549;28;20025;-77
2021/12/20 09:49:04;;;;;;;3.13;1.20;;;17.80;67.40;;;;;;5031050;28;20519;-77
2021/12/20 09:51:29;;;;;;;2.58;1.23;;;17.80;67.20;;;;;;5034434;28;20029;-77
2021/12/20 09:53:55;;;;;;;2.47;1.17;;;17.80;67.20;;;;;;5032552;28;20028;-77
2021/12/20 09:56:27;;;;;;;3.53;1.02;;;17.90;67.20;;;;;;5036999;28;20041;-77
2021/12/20 09:58:55;;;;;;;3.22;1.20;;;17.90;67.10;;;;;;5034711;28;20065;-77
2021/12/20 10:01:22;;;;;;;3.03;1.27;;;17.90;67.80;;;;;;5041957;28;20024;-76
2021/12/20 10:03:48;;;;;;;4.03;1.30;;;17.90;67.10;;;;;;5052545;28;20096;-77
2021/12/20 10:06:14;;;;;;;2.58;1.00;;;18.00;67.10;;;;;;5033955;28;20096;-78
2021/12/20 10:08:49;;;;;;;2.75;1.08;;;18.00;67.00;;;;;;5035343;28;20026;-77
2021/12/20 10:11:21;;;;;;;3.25;0.98;;;18.00;66.90;;;;;;5043870;28;20396;-78
2021/12/20 10:13:47;;;;;;;2.75;0.90;;;18.10;67.00;;;;;;5052413;28;20087;-78
2021/12/20 10:16:18;;;;;;;3.50;1.30;;;18.10;66.80;;;;;;5034505;28;20033;-77
2021/12/20 10:18:45;;;;;;;3.75;0.80;;;18.20;66.80;;;;;;5038954;28;20025;-77
2021/12/20 10:21:10;;;;;;;6.80;1.25;;;18.20;66.70;;;;;;5039869;28;20047;-77
2021/12/20 10:23:45;;;;;;;4.68;1.13;;;18.20;66.70;;;;;;5032834;28;20021;-77
2021/12/20 10:26:14;;;;;;;6.40;0.98;;;18.30;66.60;;;;;;5031859;28;20393;-77
2021/12/20 10:28:41;;;;;;;2.47;0.70;;;18.30;66.60;;;;;;5021121;28;20392;-77
2021/12/20 10:31:09;;;;;;;3.00;1.05;;;18.30;66.50;;;;;;5051781;28;20028;-77
2021/12/20 10:33:35;;;;;;;5.55;1.35;;;18.40;66.40;;;;;;5051778;28;20013;-77
2021/12/20 10:36:08;;;;;;;5.85;1.20;;;18.40;66.40;;;;;;5051538;28;20032;-77
2021/12/20 10:38:48;;;;;;;5.55;1.35;;;18.40;66.40;;;;;;5047316;28;20101;-77
2021/12/20 10:41:34;;;;;;;6.45;1.17;;;18.50;67.10;;;;;;5031715;28;20493;-77
2021/12/20 10:44:15;;;;;;;3.35;1.30;;;18.50;66.40;;;;;;5031683;28;20033;-77
2021/12/20 10:46:56;;;;;;;5.55;1.10;;;18.60;66.30;;;;;;5031741;28;20112;-77
2021/12/20 10:49:26;;;;;;;2.03;0.93;;;18.60;66.20;;;;;;5042028;28;20056;-77
2021/12/20 10:51:53;;;;;;;4.38;1.15;;;18.60;66.10;;;;;;5051648;28;20103;-77
2021/12/20 10:54:22;;;;;;;4.90;1.50;;;18.60;66.00;;;;;;5051754;28;20078;-77
2021/12/20 10:56:52;;;;;;;5.15;1.10;;;18.70;66.00;;;;;;5051502;28;20025;-77
2021/12/20 10:59:25;;;;;;;4.20;1.60;;;18.70;65.90;;;;;;5024139;28;20060;-77
2021/12/20 11:04:31;;;;;;;7.22;1.38;;;18.70;65.80;;;;;;5050913;28;20032;-77
2021/12/20 11:09:54;;;;;;;5.97;1.30;;;18.90;65.50;;;;;;5030635;28;20018;-77
2021/12/20 11:12:23;;;;;;;4.32;1.05;;;18.80;65.30;;;;;;5031020;28;20021;-76
2021/12/20 11:14:53;;;;;;;5.32;1.40;;;18.90;65.40;;;;;;5030869;28;20029;-77
2021/12/20 11:17:21;;;;;;;3.38;0.90;;;18.90;65.10;;;;;;5030546;28;20030;-76
2021/12/20 11:19:55;;;;;;;3.60;1.27;;;19.00;65.20;;;;;;5042808;28;20489;-77
2021/12/20 11:22:25;;;;;;;4.88;1.13;;;19.00;65.00;;;;;;5050698;28;20021;-77
2021/12/20 11:24:56;;;;;;;5.45;1.25;;;19.00;64.80;;;;;;5051052;28;20036;-77
2021/12/20 11:27:32;;;;;;;6.10;1.30;;;19.10;64.90;;;;;;5032837;28;20111;-77
2021/12/20 11:30:00;;;;;;;4.82;1.73;;;19.10;64.80;;;;;;5040167;28;20030;-76
2021/12/20 11:32:26;;;;;;;7.25;1.63;;;19.10;64.70;;;;;;5012933;28;20147;-77
2021/12/20 11:34:54;;;;;;;5.88;1.25;;;19.10;64.40;;;;;;5031015;28;20053;-78
2021/12/20 11:37:23;;;;;;;6.60;1.38;;;19.10;64.50;;;;;;5033130;28;20052;-76
2021/12/20 11:39:50;;;;;;;7.05;1.30;;;19.20;65.00;;;;;;5013947;28;20421;-78
2021/12/20 11:42:16;;;;;;;4.45;1.35;;;19.20;64.80;;;;;;5034086;28;20071;-76
2021/12/20 11:44:46;;;;;;;4.68;1.10;;;19.30;64.90;;;;;;5034322;28;20515;-77
2021/12/20 11:47:31;;;;;;;6.72;1.05;;;19.30;65.00;;;;;;5034147;28;20032;-77
2021/12/20 11:50:05;;;;;;;3.17;0.95;;;19.40;64.90;;;;;;5028955;28;20481;-77
2021/12/20 11:52:37;;;;;;;5.90;1.30;;;19.40;64.80;;;;;;5036231;28;20021;-76
2021/12/20 11:55:28;;;;;;;6.65;1.20;;;19.40;64.90;;;;;;5053995;28;20090;-76
2021/12/20 11:57:58;;;;;;;6.00;1.17;;;19.40;64.60;;;;;;5054575;28;20021;-77
2021/12/20 12:00:33;;;;;;;4.47;1.30;;;19.50;65.00;;;;;;5031444;28;20033;-76
2021/12/20 12:03:02;;;;;;;6.78;1.20;;;19.40;64.70;;;;;;5025584;28;20029;-75
2021/12/20 12:05:30;;;;;;;4.47;1.90;;;19.40;64.50;;;;;;5046285;28;20108;-76
2021/12/20 12:08:21;;;;;;;8.15;3.40;;;19.40;64.80;;;;;;5042058;28;20440;-76
2021/12/20 12:10:49;;;;;;;8.00;3.30;;;19.50;65.20;;;;;;5032066;28;20104;-75
2021/12/20 12:13:16;;;;;;;9.38;4.80;;;19.40;65.00;;;;;;5015239;28;20116;-75
2021/12/20 12:15:59;;;;;;;10.68;3.63;;;19.50;65.30;;;;;;5033255;28;20408;-75
2021/12/20 12:18:48;;;;;;;7.97;3.33;;;19.40;65.20;;;;;;5034243;28;20026;-77
2021/12/20 12:21:32;;;;;;;8.40;3.58;;;19.40;65.10;;;;;;5034767;28;20489;-77
2021/12/20 12:24:06;;;;;;;7.15;2.72;;;19.40;65.20;;;;;;5016570;28;20037;-79
2021/12/20 12:26:43;;;;;;;9.10;3.22;;;19.40;65.20;;;;;;5023208;28;20419;-77
2021/12/20 12:29:29;;;;;;;9.10;3.25;;;19.40;64.90;;;;;;5023466;28;20444;-76
2021/12/20 12:31:57;;;;;;;9.52;3.92;;;19.30;64.70;;;;;;5040564;28;20037;-77
2021/12/20 12:34:43;;;;;;;10.23;3.60;;;19.30;64.80;;;;;;5041923;28;20028;-78
2021/12/20 12:37:31;;;;;;;9.57;2.92;;;19.30;64.80;;;;;;5022239;28;20032;-77
2021/12/20 12:40:31;;;;;;;12.10;2.95;;;19.30;64.80;;;;;;5041500;28;20021;-78
2021/12/20 12:42:58;;;;;;;8.25;3.33;;;19.20;64.70;;;;;;5009333;28;20655;-78
2021/12/20 12:45:48;;;;;;;8.57;2.70;;;19.20;64.60;;;;;;5050261;28;20040;-78
2021/12/20 12:48:52;;;;;;;9.57;2.75;;;19.20;64.70;;;;;;5051234;28;20493;-77
2021/12/20 12:51:18;;;;;;;8.05;3.20;;;19.20;64.90;;;;;;4981828;28;20034;-76
2021/12/20 12:53:45;;;;;;;9.27;2.10;;;19.20;64.90;;;;;;4991610;28;20398;-76
2021/12/20 12:56:31;;;;;;;6.10;2.35;;;19.10;64.70;;;;;;5014974;28;20564;-78
2021/12/20 12:59:11;;;;;;;6.03;2.45;;;19.10;64.60;;;;;;5045579;28;20495;-77
2021/12/20 13:01:40;;;;;;;7.13;2.10;;;19.10;64.70;;;;;;5033133;28;20375;-77
2021/12/20 13:04:06;;;;;;;9.38;2.85;;;19.00;64.60;;;;;;5032543;28;20047;-79
2021/12/20 13:06:32;;;;;;;7.53;2.22;;;19.00;64.60;;;;;;5032844;28;20109;-76
2021/12/20 13:09:01;;;;;;;7.38;1.98;;;19.00;64.60;;;;;;5032986;28;20489;-79
2021/12/20 13:11:29;;;;;;;10.93;2.70;;;19.00;64.60;;;;;;5052275;28;20396;-76
2021/12/20 13:14:18;;;;;;;6.68;1.95;;;18.90;64.40;;;;;;5052605;28;20025;-76
2021/12/20 13:16:57;;;;;;;8.60;2.47;;;18.90;64.40;;;;;;5051944;28;20036;-77
2021/12/20 13:19:32;;;;;;;7.57;2.35;;;18.90;64.30;;;;;;5032373;28;20107;-77